createdAt,value
2023-02-02T00:00:05.027Z,76.05
2023-02-02T00:01:05.201Z,76.54
2023-02-02T00:02:05.385Z,64.78
2023-02-02T00:03:05.569Z,79.28
2023-02-02T00:04:06.444Z,75.73
2023-02-02T00:05:05.885Z,76.86
2023-02-02T00:06:06.110Z,59.78
2023-02-02T00:07:06.885Z,59.14
2023-02-02T00:08:06.525Z,59.62
2023-02-02T00:09:06.777Z,60.42
2023-02-02T00:10:07.828Z,75.41
2023-02-02T00:11:06.985Z,61.07
2023-02-02T00:12:07.176Z,59.94
2023-02-02T00:13:07.351Z,64.13
2023-02-02T00:14:07.524Z,64.61
2023-02-02T00:15:07.707Z,59.78
2023-02-02T00:16:07.930Z,60.10
2023-02-02T00:17:08.881Z,60.59
2023-02-02T00:18:08.899Z,80.24
2023-02-02T00:19:08.887Z,58.81
2023-02-02T00:20:08.566Z,59.30
2023-02-02T00:21:08.766Z,58.97
2023-02-02T00:22:09.429Z,80.08
2023-02-02T00:23:10.380Z,76.86
2023-02-02T00:24:09.277Z,78.96
2023-02-02T00:25:10.418Z,58.81
2023-02-02T00:26:09.697Z,58.49
2023-02-02T00:27:09.948Z,64.94
2023-02-02T00:28:10.122Z,62.04
2023-02-02T00:29:10.317Z,80.73
2023-02-02T00:30:10.526Z,81.53
2023-02-02T00:31:11.428Z,68.00
2023-02-02T00:32:10.869Z,79.28
2023-02-02T00:33:11.891Z,75.89
2023-02-02T00:34:11.305Z,77.50
2023-02-02T00:35:11.535Z,63.00
2023-02-02T00:36:11.745Z,63.16
2023-02-02T00:37:11.961Z,78.31
2023-02-02T00:38:12.188Z,82.18
2023-02-02T00:39:33.381Z,66.71
2023-02-02T00:40:12.529Z,69.77
2023-02-02T00:41:12.719Z,66.87
2023-02-02T00:42:12.894Z,65.26
2023-02-02T00:43:13.093Z,67.51
2023-02-02T00:44:13.281Z,80.08
2023-02-02T00:45:13.504Z,66.55
2023-02-02T00:46:13.685Z,67.03
2023-02-02T00:47:14.754Z,65.58
2023-02-02T00:48:14.055Z,72.83
2023-02-02T00:49:14.924Z,75.57
2023-02-02T00:50:14.476Z,68.00
2023-02-02T00:51:15.425Z,78.79
2023-02-02T00:52:14.876Z,65.74
2023-02-02T00:53:15.922Z,64.29
2023-02-02T00:54:15.882Z,65.42
2023-02-02T00:55:15.466Z,82.66
2023-02-02T00:56:15.652Z,80.24
2023-02-02T00:57:15.847Z,66.87
2023-02-02T00:58:16.074Z,67.03
2023-02-02T00:59:16.927Z,66.71
2023-02-02T01:00:16.457Z,65.74
2023-02-02T01:01:17.698Z,64.61
2023-02-02T01:02:16.847Z,62.36
2023-02-02T01:03:17.437Z,78.63
2023-02-02T01:04:17.101Z,63.33
2023-02-02T01:05:17.315Z,66.23
2023-02-02T01:06:18.435Z,66.55
2023-02-02T01:07:18.389Z,65.26
2023-02-02T01:08:18.067Z,65.58
2023-02-02T01:09:19.147Z,62.36
2023-02-02T01:10:18.285Z,74.77
2023-02-02T01:11:18.464Z,60.26
2023-02-02T01:12:19.428Z,66.87
2023-02-02T01:13:19.395Z,63.00
2023-02-02T01:14:19.934Z,80.89
2023-02-02T01:15:19.893Z,71.70
2023-02-02T01:16:19.465Z,60.42
2023-02-02T01:17:19.946Z,63.33
2023-02-02T01:18:20.398Z,64.78
2023-02-02T01:19:19.939Z,62.36
2023-02-02T01:20:20.898Z,59.62
2023-02-02T01:21:20.288Z,58.97
2023-02-02T01:22:20.475Z,66.23
2023-02-02T01:23:20.648Z,61.39
2023-02-02T01:24:20.866Z,60.10
2023-02-02T01:25:22.628Z,65.74
2023-02-02T01:26:21.220Z,62.36
2023-02-02T01:27:21.403Z,63.16
2023-02-02T01:28:21.571Z,61.55
2023-02-02T01:29:21.747Z,61.55
2023-02-02T01:30:22.060Z,82.98
2023-02-02T01:31:23.995Z,61.23
2023-02-02T01:32:22.235Z,60.75
2023-02-02T01:33:22.389Z,59.78
2023-02-02T01:34:23.899Z,60.10
2023-02-02T01:35:23.386Z,57.52
2023-02-02T01:36:23.917Z,58.49
2023-02-02T01:37:23.187Z,58.97
2023-02-02T01:38:23.369Z,60.59
2023-02-02T01:39:24.396Z,58.65
2023-02-02T01:40:24.401Z,58.17
2023-02-02T01:41:23.823Z,61.23
2023-02-02T01:42:24.017Z,76.22
2023-02-02T01:43:24.182Z,60.59
2023-02-02T01:44:24.366Z,62.52
2023-02-02T01:45:24.926Z,58.97
2023-02-02T01:46:25.408Z,62.84
2023-02-02T01:47:24.814Z,60.91
2023-02-02T01:48:25.903Z,56.40
2023-02-02T01:49:25.161Z,58.97
2023-02-02T01:50:25.936Z,62.68
2023-02-02T01:51:26.396Z,58.33
2023-02-02T01:52:26.412Z,58.81
2023-02-02T01:53:25.811Z,76.54
2023-02-02T01:54:25.992Z,68.80
2023-02-02T01:55:26.370Z,59.94
2023-02-02T01:56:26.304Z,57.52
2023-02-02T01:57:27.338Z,57.20
2023-02-02T01:58:27.434Z,73.96
2023-02-02T01:59:26.876Z,57.69
2023-02-02T02:00:27.772Z,56.88
2023-02-02T02:01:27.213Z,81.53
2023-02-02T02:02:27.466Z,75.25
2023-02-02T02:03:27.518Z,63.16
2023-02-02T02:04:28.402Z,59.94
2023-02-02T02:05:27.936Z,64.29
2023-02-02T02:06:28.128Z,77.83
2023-02-02T02:07:28.337Z,59.14
2023-02-02T02:08:28.535Z,56.40
2023-02-02T02:09:28.691Z,53.82
2023-02-02T02:10:29.445Z,57.69
2023-02-02T02:11:29.127Z,55.11
2023-02-02T02:12:29.358Z,55.27
2023-02-02T02:13:29.555Z,56.24
2023-02-02T02:14:30.408Z,61.39
2023-02-02T02:15:29.981Z,58.81
2023-02-02T02:16:30.191Z,58.17
2023-02-02T02:17:30.419Z,56.72
2023-02-02T02:18:30.647Z,58.01
2023-02-02T02:19:31.469Z,53.50
2023-02-02T02:20:31.025Z,57.04
2023-02-02T02:21:31.252Z,81.69
2023-02-02T02:22:31.467Z,57.20
2023-02-02T02:23:31.695Z,56.24
2023-02-02T02:24:31.895Z,55.27
2023-02-02T02:25:32.102Z,54.79
2023-02-02T02:26:32.352Z,86.37
2023-02-02T02:27:32.549Z,55.43
2023-02-02T02:28:32.750Z,58.49
2023-02-02T02:29:32.921Z,56.40
2023-02-02T02:30:33.190Z,60.10
2023-02-02T02:31:33.402Z,53.98
2023-02-02T02:32:33.957Z,58.49
2023-02-02T02:33:33.632Z,60.10
2023-02-02T02:34:33.826Z,55.11
2023-02-02T02:35:33.991Z,55.59
2023-02-02T02:36:34.904Z,71.38
2023-02-02T02:37:34.902Z,77.18
2023-02-02T02:38:34.561Z,60.75
2023-02-02T02:39:34.730Z,64.29
2023-02-02T02:40:34.932Z,62.52
2023-02-02T02:41:35.107Z,70.42
2023-02-02T02:42:36.301Z,78.96
2023-02-02T02:43:35.955Z,66.39
2023-02-02T02:44:35.643Z,65.58
2023-02-02T02:45:36.408Z,64.13
2023-02-02T02:46:36.909Z,62.36
2023-02-02T02:47:36.910Z,65.10
2023-02-02T02:48:36.332Z,64.78
2023-02-02T02:49:37.909Z,79.92
2023-02-02T02:50:37.408Z,72.83
2023-02-02T02:51:36.827Z,76.70
2023-02-02T02:52:37.040Z,64.94
2023-02-02T02:53:37.218Z,79.60
2023-02-02T02:54:38.267Z,61.39
2023-02-02T02:55:37.553Z,77.18
2023-02-02T02:56:37.728Z,60.26
2023-02-02T02:57:37.945Z,81.21
2023-02-02T02:58:38.138Z,74.77
2023-02-02T02:59:38.333Z,75.89
2023-02-02T03:00:38.521Z,77.83
2023-02-02T03:01:38.724Z,80.24
2023-02-02T03:02:38.952Z,63.00
2023-02-02T03:03:40.154Z,78.31
2023-02-02T03:04:39.333Z,61.71
2023-02-02T03:05:39.508Z,79.12
2023-02-02T03:06:40.448Z,80.73
2023-02-02T03:07:40.409Z,63.16
2023-02-02T03:08:41.904Z,77.67
2023-02-02T03:09:40.287Z,80.24
2023-02-02T03:10:40.469Z,63.16
2023-02-02T03:11:40.638Z,78.63
2023-02-02T03:12:40.807Z,63.16
2023-02-02T03:13:40.981Z,63.00
2023-02-02T03:14:41.138Z,63.81
2023-02-02T03:15:42.028Z,59.94
2023-02-02T03:16:41.485Z,86.69
2023-02-02T03:17:42.907Z,61.55
2023-02-02T03:18:41.820Z,64.61
2023-02-02T03:19:41.975Z,81.53
2023-02-02T03:20:42.158Z,71.70
2023-02-02T03:21:42.323Z,64.45
2023-02-02T03:22:42.482Z,60.59
2023-02-02T03:23:42.753Z,78.31
2023-02-02T03:24:44.452Z,80.24
2023-02-02T03:25:44.467Z,61.39
2023-02-02T03:26:43.267Z,62.84
2023-02-02T03:27:43.432Z,75.41
2023-02-02T03:28:44.412Z,60.26
2023-02-02T03:29:44.417Z,81.05
2023-02-02T03:30:45.943Z,82.50
2023-02-02T03:31:44.104Z,83.95
2023-02-02T03:32:44.916Z,63.97
2023-02-02T03:33:44.412Z,62.52
2023-02-02T03:34:44.581Z,58.97
2023-02-02T03:35:44.783Z,80.89
2023-02-02T03:36:44.941Z,77.50
2023-02-02T03:37:45.776Z,63.65
2023-02-02T03:38:45.290Z,76.70
2023-02-02T03:39:46.919Z,75.41
2023-02-02T03:40:46.918Z,81.69
2023-02-02T03:41:45.828Z,74.44
2023-02-02T03:42:46.911Z,77.67
2023-02-02T03:43:46.141Z,78.79
2023-02-02T03:44:46.951Z,79.44
2023-02-02T03:45:46.485Z,83.79
2023-02-02T03:46:47.510Z,80.89
2023-02-02T03:47:46.801Z,79.28
2023-02-02T03:48:46.990Z,79.92
2023-02-02T03:49:47.140Z,81.05
2023-02-02T03:50:47.289Z,82.02
2023-02-02T03:51:47.452Z,78.31
2023-02-02T03:52:47.616Z,76.05
2023-02-02T03:53:48.030Z,81.05
2023-02-02T03:54:48.927Z,83.47
2023-02-02T03:55:48.178Z,79.92
2023-02-02T03:56:48.959Z,77.99
2023-02-02T03:57:48.514Z,79.60
2023-02-02T03:58:48.700Z,83.63
2023-02-02T03:59:48.872Z,79.76
2023-02-02T04:00:49.915Z,86.04
2023-02-02T04:01:49.311Z,83.47
2023-02-02T04:02:49.425Z,78.47
2023-02-02T04:03:49.497Z,80.41
2023-02-02T04:04:50.464Z,79.60
2023-02-02T04:05:49.885Z,82.98
2023-02-02T04:06:50.061Z,80.73
2023-02-02T04:07:50.262Z,72.51
2023-02-02T04:08:51.924Z,80.24
2023-02-02T04:09:52.425Z,82.82
2023-02-02T04:10:50.790Z,84.59
2023-02-02T04:11:50.952Z,82.18
2023-02-02T04:12:51.157Z,82.34
2023-02-02T04:13:51.294Z,84.59
2023-02-02T04:14:52.421Z,84.27
2023-02-02T04:15:52.479Z,83.63
2023-02-02T04:16:51.896Z,81.86
2023-02-02T04:17:52.924Z,87.98
2023-02-02T04:18:52.963Z,80.08
2023-02-02T04:19:52.452Z,80.73
2023-02-02T04:20:54.787Z,82.02
2023-02-02T04:21:53.678Z,82.02
2023-02-02T04:22:52.977Z,80.24
2023-02-02T04:23:53.016Z,80.73
2023-02-02T04:24:53.923Z,87.66
2023-02-02T04:25:53.349Z,85.08
2023-02-02T04:26:53.714Z,85.88
2023-02-02T04:27:55.430Z,82.50
2023-02-02T04:28:54.440Z,85.24
2023-02-02T04:29:54.788Z,81.86
2023-02-02T04:30:54.227Z,85.72
2023-02-02T04:31:54.412Z,82.50
2023-02-02T04:32:55.468Z,83.47
2023-02-02T04:33:54.730Z,82.98
2023-02-02T04:34:54.873Z,80.89
2023-02-02T04:35:55.481Z,83.31
2023-02-02T04:36:55.967Z,84.27
2023-02-02T04:37:56.469Z,82.98
2023-02-02T04:38:55.735Z,83.14
2023-02-02T04:39:55.946Z,84.11
2023-02-02T04:40:57.924Z,85.08
2023-02-02T04:41:56.325Z,83.95
2023-02-02T04:42:57.426Z,86.85
2023-02-02T04:43:56.717Z,83.47
2023-02-02T04:44:56.879Z,83.47
2023-02-02T04:45:58.011Z,83.31
2023-02-02T04:46:57.236Z,83.47
2023-02-02T04:47:57.974Z,84.92
2023-02-02T04:48:58.469Z,82.02
2023-02-02T04:49:57.732Z,84.11
2023-02-02T04:50:58.426Z,85.88
2023-02-02T04:51:59.925Z,83.14
2023-02-02T04:52:58.292Z,84.27
2023-02-02T04:53:58.471Z,85.24
2023-02-02T04:54:59.293Z,85.40
2023-02-02T04:55:58.834Z,88.62
2023-02-02T04:56:58.979Z,86.04
2023-02-02T04:57:59.182Z,81.69
2023-02-02T04:58:59.387Z,83.63
2023-02-02T05:00:00.434Z,85.40
2023-02-02T05:00:59.737Z,83.63
2023-02-02T05:01:59.893Z,85.08
2023-02-02T05:03:00.112Z,83.63
2023-02-02T05:04:00.311Z,86.04
2023-02-02T05:05:00.462Z,84.43
2023-02-02T05:06:00.637Z,83.79
2023-02-02T05:07:00.788Z,83.95
2023-02-02T05:08:01.931Z,84.27
2023-02-02T05:09:01.931Z,82.50
2023-02-02T05:10:01.234Z,86.69
2023-02-02T05:11:01.414Z,85.08
2023-02-02T05:12:01.583Z,86.53
2023-02-02T05:13:02.329Z,84.43
2023-02-02T05:14:01.974Z,88.78
2023-02-02T05:15:02.179Z,84.92
2023-02-02T05:16:02.353Z,85.40
2023-02-02T05:17:03.472Z,84.43
2023-02-02T05:18:03.442Z,85.40
2023-02-02T05:19:02.869Z,83.47
2023-02-02T05:20:03.064Z,82.02
2023-02-02T05:21:03.983Z,84.27
2023-02-02T05:22:03.427Z,83.31
2023-02-02T05:23:04.445Z,87.17
2023-02-02T05:24:03.880Z,82.02
2023-02-02T05:25:04.082Z,84.76
2023-02-02T05:26:04.294Z,82.98
2023-02-02T05:27:05.451Z,81.86
2023-02-02T05:28:04.996Z,83.14
2023-02-02T05:29:05.482Z,85.08
2023-02-02T05:30:05.068Z,87.17
2023-02-02T05:31:05.299Z,85.08
2023-02-02T05:32:06.486Z,86.21
2023-02-02T05:33:05.667Z,86.04
2023-02-02T05:34:05.884Z,84.59
2023-02-02T05:35:06.076Z,83.95
2023-02-02T05:36:06.984Z,82.18
2023-02-02T05:37:06.992Z,83.47
2023-02-02T05:38:06.525Z,82.98
2023-02-02T05:39:06.723Z,80.57
2023-02-02T05:40:06.891Z,82.34
2023-02-02T05:41:07.946Z,84.43
2023-02-02T05:42:07.221Z,85.08
2023-02-02T05:43:07.404Z,89.27
2023-02-02T05:44:07.611Z,82.98
2023-02-02T05:45:07.778Z,83.47
2023-02-02T05:46:08.999Z,87.17
2023-02-02T05:47:08.170Z,86.53
2023-02-02T05:48:08.987Z,88.30
2023-02-02T05:49:08.533Z,84.43
2023-02-02T05:50:10.442Z,88.30
2023-02-02T05:51:09.482Z,84.27
2023-02-02T05:52:10.447Z,84.43
2023-02-02T05:53:09.957Z,83.95
2023-02-02T05:54:09.453Z,87.33
2023-02-02T05:55:10.483Z,83.63
2023-02-02T05:56:09.755Z,82.34
2023-02-02T05:57:10.012Z,84.59
2023-02-02T05:58:10.058Z,82.98
2023-02-02T05:59:10.252Z,87.98
2023-02-02T06:00:10.458Z,82.98
2023-02-02T06:01:10.643Z,82.18
2023-02-02T06:02:10.824Z,83.14
2023-02-02T06:03:11.131Z,83.31
2023-02-02T06:04:12.016Z,86.85
2023-02-02T06:05:11.416Z,84.76
2023-02-02T06:06:11.580Z,82.34
2023-02-02T06:07:11.751Z,84.11
2023-02-02T06:08:11.927Z,85.08
2023-02-02T06:09:13.463Z,80.73
2023-02-02T06:10:12.323Z,81.21
2023-02-02T06:11:13.447Z,84.92
2023-02-02T06:12:13.464Z,83.95
2023-02-02T06:13:13.449Z,82.18
2023-02-02T06:14:13.956Z,82.82
2023-02-02T06:15:13.254Z,83.95
2023-02-02T06:16:13.499Z,83.63
2023-02-02T06:17:13.561Z,88.14
2023-02-02T06:18:14.485Z,82.18
2023-02-02T06:19:13.880Z,85.72
2023-02-02T06:20:14.051Z,82.66
2023-02-02T06:21:14.231Z,83.47
2023-02-02T06:22:14.357Z,86.69
2023-02-02T06:23:14.504Z,82.66
2023-02-02T06:24:14.638Z,90.72
2023-02-02T06:25:15.947Z,82.50
2023-02-02T06:26:14.996Z,83.47
2023-02-02T06:27:15.141Z,82.66
2023-02-02T06:28:15.321Z,86.04
2023-02-02T06:29:15.483Z,82.66
2023-02-02T06:30:16.447Z,83.79
2023-02-02T06:31:15.933Z,84.11
2023-02-02T06:32:17.813Z,81.05
2023-02-02T06:33:16.194Z,82.50
2023-02-02T06:34:16.999Z,83.79
2023-02-02T06:35:17.316Z,82.02
2023-02-02T06:36:18.340Z,85.56
2023-02-02T06:37:17.813Z,82.18
2023-02-02T06:38:17.050Z,85.24
2023-02-02T06:39:18.946Z,86.21
2023-02-02T06:40:18.005Z,83.63
2023-02-02T06:41:18.497Z,83.31
2023-02-02T06:42:21.682Z,83.31
2023-02-02T06:43:19.040Z,83.14
2023-02-02T06:44:18.951Z,83.47
2023-02-02T06:45:18.311Z,84.11
2023-02-02T06:46:20.528Z,82.82
2023-02-02T06:47:18.695Z,83.95
2023-02-02T06:48:19.452Z,83.47
2023-02-02T06:49:19.953Z,82.66
2023-02-02T06:50:19.817Z,85.08
2023-02-02T06:51:19.519Z,86.85
2023-02-02T06:52:20.457Z,83.79
2023-02-02T06:53:20.501Z,87.33
2023-02-02T06:54:20.018Z,83.31
2023-02-02T06:55:20.058Z,83.14
2023-02-02T06:56:20.242Z,84.76
2023-02-02T06:57:21.457Z,84.76
2023-02-02T06:58:21.496Z,84.11
2023-02-02T06:59:21.454Z,83.47
2023-02-02T07:00:21.012Z,81.53
2023-02-02T07:01:21.290Z,81.86
2023-02-02T07:02:21.443Z,82.18
2023-02-02T07:03:21.640Z,83.79
2023-02-02T07:04:21.834Z,86.37
2023-02-02T07:05:22.115Z,88.78
2023-02-02T07:06:22.220Z,83.79
2023-02-02T07:07:22.395Z,82.18
2023-02-02T07:08:22.549Z,85.40
2023-02-02T07:09:22.738Z,83.95
2023-02-02T07:11:14.672Z,86.04
2023-02-02T07:11:24.165Z,83.14
2023-02-02T07:12:23.301Z,82.82
2023-02-02T07:13:23.999Z,80.89
2023-02-02T07:14:24.454Z,83.95
2023-02-02T07:15:24.315Z,84.27
2023-02-02T07:16:25.050Z,83.63
2023-02-02T07:17:24.946Z,85.24
2023-02-02T07:18:26.010Z,83.47
2023-02-02T07:19:24.561Z,86.37
2023-02-02T07:20:24.612Z,86.21
2023-02-02T07:21:26.460Z,82.98
2023-02-02T07:22:24.984Z,87.17
2023-02-02T07:23:25.161Z,86.85
2023-02-02T07:24:25.969Z,84.27
2023-02-02T07:25:26.360Z,83.63
2023-02-02T07:26:26.972Z,82.82
2023-02-02T07:27:25.759Z,86.21
2023-02-02T07:28:25.968Z,82.18
2023-02-02T07:29:27.008Z,86.04
2023-02-02T07:30:27.499Z,83.63
2023-02-02T07:31:28.034Z,83.47
2023-02-02T07:32:26.607Z,83.63
2023-02-02T07:33:26.784Z,84.11
2023-02-02T07:34:26.979Z,88.95
2023-02-02T07:35:27.175Z,86.37
2023-02-02T07:36:27.371Z,84.76
2023-02-02T07:37:28.508Z,87.50
2023-02-02T07:38:27.662Z,86.04
2023-02-02T07:39:27.867Z,83.79
2023-02-02T07:40:29.017Z,84.76
2023-02-02T07:41:28.307Z,86.04
2023-02-02T07:42:28.487Z,88.62
2023-02-02T07:43:28.650Z,83.63
2023-02-02T07:44:28.872Z,84.11
2023-02-02T07:45:29.048Z,85.56
2023-02-02T07:46:29.261Z,82.66
2023-02-02T07:47:29.466Z,83.47
2023-02-02T07:48:30.978Z,88.78
2023-02-02T07:49:30.040Z,85.72
2023-02-02T07:50:29.952Z,84.43
2023-02-02T07:51:30.968Z,86.04
2023-02-02T07:52:31.010Z,84.27
2023-02-02T07:53:31.008Z,87.17
2023-02-02T07:54:31.025Z,82.66
2023-02-02T07:55:31.131Z,85.56
2023-02-02T07:56:31.521Z,86.37
2023-02-02T07:57:31.969Z,82.02
2023-02-02T07:58:31.223Z,83.63
2023-02-02T07:59:32.532Z,89.11
2023-02-02T08:00:32.668Z,85.56
2023-02-02T08:01:32.526Z,85.08
2023-02-02T08:02:32.071Z,85.24
2023-02-02T08:03:32.249Z,85.72
2023-02-02T08:04:32.415Z,83.63
2023-02-02T08:05:33.332Z,86.53
2023-02-02T08:06:32.722Z,87.50
2023-02-02T08:07:33.977Z,85.08
2023-02-02T08:08:55.837Z,85.24
2023-02-02T08:09:33.527Z,84.11
2023-02-02T08:10:34.510Z,82.98
2023-02-02T08:11:33.655Z,85.56
2023-02-02T08:12:33.814Z,87.17
2023-02-02T08:13:34.468Z,84.59
2023-02-02T08:14:34.146Z,86.85
2023-02-02T08:15:34.283Z,82.34
2023-02-02T08:16:35.015Z,83.95
2023-02-02T08:17:34.635Z,82.66
2023-02-02T08:18:35.469Z,86.69
2023-02-02T08:19:35.525Z,84.43
2023-02-02T08:20:35.180Z,84.92
2023-02-02T08:21:36.016Z,83.95
2023-02-02T08:22:35.548Z,82.66
2023-02-02T08:23:35.714Z,86.37
2023-02-02T08:24:36.975Z,83.79
2023-02-02T08:25:37.475Z,82.34
2023-02-02T08:26:36.298Z,83.95
2023-02-02T08:27:37.915Z,85.08
2023-02-02T08:28:37.679Z,83.95
2023-02-02T08:29:36.808Z,85.56
2023-02-02T08:30:37.016Z,87.98
2023-02-02T08:31:37.261Z,86.37
2023-02-02T08:32:37.345Z,82.82
2023-02-02T08:33:39.527Z,84.43
2023-02-02T08:34:38.655Z,82.50
2023-02-02T08:35:37.804Z,86.69
2023-02-02T08:36:38.031Z,83.14
2023-02-02T08:37:38.843Z,85.56
2023-02-02T08:38:38.391Z,87.66
2023-02-02T08:39:38.600Z,86.21
2023-02-02T08:40:38.786Z,85.72
2023-02-02T08:41:39.035Z,88.14
2023-02-02T08:42:39.225Z,85.88
2023-02-02T08:43:39.418Z,80.89
2023-02-02T08:44:51.765Z,86.69
2023-02-02T08:46:01.634Z,82.50
2023-02-02T08:46:40.917Z,86.53
2023-02-02T08:47:40.521Z,82.66
2023-02-02T08:48:41.027Z,82.02
2023-02-02T08:49:40.437Z,82.34
2023-02-02T08:50:40.585Z,84.59
2023-02-02T08:51:40.823Z,82.34
2023-02-02T08:52:40.975Z,80.41
2023-02-02T08:53:41.137Z,82.18
2023-02-02T08:54:41.863Z,85.72
2023-02-02T08:55:41.514Z,82.50
2023-02-02T08:56:41.696Z,83.47
2023-02-02T08:57:41.899Z,87.33
2023-02-02T08:58:42.045Z,84.59
2023-02-02T08:59:42.189Z,82.82
2023-02-02T09:00:42.358Z,82.34
2023-02-02T09:01:42.563Z,85.08
2023-02-02T09:02:42.723Z,85.88
2023-02-02T09:03:42.907Z,81.69
2023-02-02T09:04:43.048Z,85.40
2023-02-02T09:05:43.206Z,84.59
2023-02-02T09:06:44.020Z,82.34
2023-02-02T09:07:43.539Z,110.05
2023-02-02T09:08:43.706Z,81.69
2023-02-02T09:09:43.831Z,85.72
2023-02-02T09:10:44.521Z,81.21
2023-02-02T09:11:44.145Z,83.14
2023-02-02T09:12:45.340Z,83.63
2023-02-02T09:13:45.041Z,84.43
2023-02-02T09:14:45.526Z,85.24
2023-02-02T09:15:44.900Z,82.98
2023-02-02T09:16:45.143Z,85.08
2023-02-02T09:17:45.285Z,82.98
2023-02-02T09:18:46.489Z,87.17
2023-02-02T09:19:47.482Z,85.40
2023-02-02T09:20:47.356Z,82.02
2023-02-02T09:21:45.876Z,86.53
2023-02-02T09:22:46.056Z,80.89
2023-02-02T09:23:47.023Z,83.14
2023-02-02T09:24:46.382Z,87.17
2023-02-02T09:25:47.488Z,86.21
2023-02-02T09:26:47.497Z,82.50
2023-02-02T09:27:46.872Z,82.98
2023-02-02T09:28:48.500Z,83.95
2023-02-02T09:29:47.242Z,87.33
2023-02-02T09:30:47.417Z,82.98
2023-02-02T09:31:47.629Z,82.82
2023-02-02T09:32:47.810Z,83.95
2023-02-02T09:33:48.003Z,87.98
2023-02-02T09:34:48.191Z,83.31
2023-02-02T09:35:49.350Z,86.21
2023-02-02T09:36:49.494Z,82.50
2023-02-02T09:37:48.683Z,85.08
2023-02-02T09:38:49.498Z,87.66
2023-02-02T09:39:49.085Z,82.98
2023-02-02T09:40:49.256Z,84.27
2023-02-02T09:41:49.992Z,89.75
2023-02-02T09:42:49.661Z,81.53
2023-02-02T09:43:49.839Z,81.21
2023-02-02T09:44:50.049Z,83.47
2023-02-02T09:45:50.255Z,84.76
2023-02-02T09:46:51.032Z,86.37
2023-02-02T09:47:51.536Z,86.85
2023-02-02T09:48:50.813Z,82.34
2023-02-02T09:49:50.999Z,86.21
2023-02-02T09:50:51.175Z,84.59
2023-02-02T09:51:51.345Z,83.31
2023-02-02T09:52:51.995Z,85.88
2023-02-02T09:53:55.593Z,82.02
2023-02-02T09:54:52.895Z,84.27
2023-02-02T09:55:53.000Z,86.69
2023-02-02T09:56:52.290Z,83.95
2023-02-02T09:57:52.476Z,83.79
2023-02-02T09:58:52.641Z,85.56
2023-02-02T09:59:52.845Z,82.50
2023-02-02T10:00:53.031Z,83.95
2023-02-02T10:01:54.495Z,83.14
2023-02-02T10:02:54.046Z,82.98
2023-02-02T10:03:53.583Z,81.37
2023-02-02T10:04:54.791Z,85.72
2023-02-02T10:05:53.975Z,85.56
2023-02-02T10:06:54.996Z,84.43
2023-02-02T10:07:54.405Z,80.73
2023-02-02T10:08:55.500Z,81.86
2023-02-02T10:09:55.506Z,83.14
2023-02-02T10:10:54.907Z,85.40
2023-02-02T10:11:56.003Z,82.34
2023-02-02T10:12:55.282Z,83.47
2023-02-02T10:13:56.035Z,85.24
2023-02-02T10:14:55.794Z,85.40
2023-02-02T10:15:56.653Z,81.53
2023-02-02T10:16:56.096Z,92.97
2023-02-02T10:17:56.281Z,81.69
2023-02-02T10:18:57.046Z,81.05
2023-02-02T10:19:56.577Z,82.98
2023-02-02T10:20:57.544Z,81.86
2023-02-02T10:21:56.954Z,85.24
2023-02-02T10:22:57.171Z,82.66
2023-02-02T10:23:57.361Z,82.34
2023-02-02T10:24:58.042Z,86.04
2023-02-02T10:25:57.739Z,87.98
2023-02-02T10:26:58.533Z,82.18
2023-02-02T10:28:00.156Z,84.11
2023-02-02T10:29:00.007Z,81.21
2023-02-02T10:29:58.416Z,82.34
2023-02-02T10:30:59.579Z,82.18
2023-02-02T10:31:59.095Z,80.57
2023-02-02T10:33:01.234Z,82.82
2023-02-02T10:34:01.000Z,82.02
2023-02-02T10:35:12.493Z,86.37
2023-02-02T10:36:01.378Z,83.79
2023-02-02T10:37:00.046Z,86.53
2023-02-02T10:38:00.509Z,81.86
2023-02-02T10:38:59.938Z,83.79
2023-02-02T10:40:00.213Z,83.63
2023-02-02T10:41:00.307Z,82.18
2023-02-02T10:42:01.515Z,81.37
2023-02-02T10:43:00.679Z,82.50
2023-02-02T10:44:00.870Z,79.92
2023-02-02T10:45:01.048Z,81.69
2023-02-02T10:46:01.320Z,83.14
2023-02-02T10:47:01.414Z,85.08
2023-02-02T10:48:01.657Z,85.40
2023-02-02T10:49:02.013Z,82.98
2023-02-02T10:50:02.921Z,85.72
2023-02-02T10:51:02.151Z,86.53
2023-02-02T10:52:02.266Z,83.14
2023-02-02T10:53:02.431Z,82.66
2023-02-02T10:54:02.539Z,82.82
2023-02-02T10:55:04.320Z,82.02
2023-02-02T10:56:03.920Z,79.76
2023-02-02T10:57:03.108Z,83.14
2023-02-02T10:58:03.301Z,83.63
2023-02-02T10:59:03.521Z,84.11
2023-02-02T11:00:03.688Z,82.02
2023-02-02T11:01:03.869Z,82.82
2023-02-02T11:02:20.091Z,84.27
2023-02-02T11:03:06.341Z,84.11
2023-02-02T11:04:04.501Z,83.31
2023-02-02T11:05:06.515Z,107.80
2023-02-02T11:06:05.512Z,82.98
2023-02-02T11:07:06.009Z,84.59
2023-02-02T11:08:05.559Z,81.37
2023-02-02T11:09:05.320Z,85.24
2023-02-02T11:10:06.053Z,83.31
2023-02-02T11:11:05.721Z,84.27
2023-02-02T11:12:06.563Z,81.69
2023-02-02T11:13:06.013Z,81.37
2023-02-02T11:14:06.566Z,82.34
2023-02-02T11:15:08.029Z,83.14
2023-02-02T11:16:06.561Z,78.31
2023-02-02T11:17:06.731Z,80.89
2023-02-02T11:18:06.883Z,82.50
2023-02-02T11:19:08.016Z,84.11
2023-02-02T11:20:07.150Z,83.31
2023-02-02T11:21:07.345Z,82.18
2023-02-02T11:22:08.511Z,84.76
2023-02-02T11:23:07.641Z,86.04
2023-02-02T11:24:07.810Z,83.79
2023-02-02T11:25:07.971Z,84.92
2023-02-02T11:26:08.149Z,83.95
2023-02-02T11:27:09.056Z,81.53
2023-02-02T11:28:08.457Z,82.98
2023-02-02T11:29:08.626Z,81.37
2023-02-02T11:30:08.771Z,82.98
2023-02-02T11:31:08.997Z,94.58
2023-02-02T11:32:10.055Z,85.72
2023-02-02T11:33:09.310Z,84.43
2023-02-02T11:34:09.551Z,83.79
2023-02-02T11:35:09.645Z,82.66
2023-02-02T11:36:10.376Z,83.79
2023-02-02T11:37:10.527Z,83.14
2023-02-02T11:38:10.199Z,82.34
2023-02-02T11:39:10.367Z,84.59
2023-02-02T11:40:11.010Z,83.31
2023-02-02T11:41:10.643Z,83.31
2023-02-02T11:42:12.530Z,84.92
2023-02-02T11:43:11.039Z,86.53
2023-02-02T11:44:11.222Z,83.79
2023-02-02T11:45:12.022Z,81.69
2023-02-02T11:46:11.590Z,82.18
2023-02-02T11:47:12.556Z,83.79
2023-02-02T11:48:13.015Z,85.40
2023-02-02T11:49:12.169Z,82.98
2023-02-02T11:50:12.684Z,83.47
2023-02-02T11:51:13.616Z,90.72
2023-02-02T11:52:13.980Z,87.01
2023-02-02T11:53:12.866Z,87.82
2023-02-02T11:54:13.060Z,86.37
2023-02-02T11:55:13.269Z,85.88
2023-02-02T11:56:13.480Z,86.69
2023-02-02T11:57:13.669Z,82.18
2023-02-02T11:58:14.521Z,82.50
2023-02-02T11:59:13.982Z,83.95
2023-02-02T12:00:14.217Z,84.92
2023-02-02T12:01:14.310Z,85.56
2023-02-02T12:02:14.528Z,80.57
2023-02-02T12:03:15.520Z,87.17
2023-02-02T12:04:15.656Z,86.37
2023-02-02T12:05:15.106Z,84.92
2023-02-02T12:06:15.304Z,82.34
2023-02-02T12:07:15.545Z,82.50
2023-02-02T12:08:16.465Z,83.14
2023-02-02T12:09:17.524Z,82.82
2023-02-02T12:10:16.086Z,83.47
2023-02-02T12:11:16.285Z,83.47
2023-02-02T12:12:16.522Z,83.79
2023-02-02T12:13:16.735Z,84.59
2023-02-02T12:14:16.923Z,83.14
2023-02-02T12:15:19.548Z,82.66
2023-02-02T12:16:18.198Z,85.08
2023-02-02T12:17:17.425Z,81.37
2023-02-02T12:18:17.673Z,81.69
2023-02-02T12:19:17.771Z,82.66
2023-02-02T12:20:17.929Z,84.76
2023-02-02T12:21:19.061Z,83.31
2023-02-02T12:22:19.066Z,85.08
2023-02-02T12:23:18.575Z,85.88
2023-02-02T12:24:20.528Z,86.21
2023-02-02T12:25:19.531Z,84.11
2023-02-02T12:26:19.238Z,83.63
2023-02-02T12:27:20.019Z,86.04
2023-02-02T12:28:19.461Z,81.86
2023-02-02T12:29:20.568Z,85.24
2023-02-02T12:30:21.029Z,82.66
2023-02-02T12:31:20.117Z,83.79
2023-02-02T12:32:21.069Z,81.86
2023-02-02T12:33:21.033Z,86.53
2023-02-02T12:34:20.569Z,86.85
2023-02-02T12:35:20.754Z,85.08
2023-02-02T12:36:20.962Z,85.40
2023-02-02T12:37:21.135Z,80.41
2023-02-02T12:38:21.320Z,82.18
2023-02-02T12:39:21.529Z,84.11
2023-02-02T12:40:21.715Z,84.27
2023-02-02T12:41:22.535Z,82.50
2023-02-02T12:42:23.538Z,83.95
2023-02-02T12:43:22.255Z,87.01
2023-02-02T12:44:22.480Z,83.31
2023-02-02T12:45:22.619Z,88.30
2023-02-02T12:46:23.572Z,83.79
2023-02-02T12:47:22.970Z,84.27
2023-02-02T12:48:24.035Z,84.59
2023-02-02T12:49:23.302Z,84.59
2023-02-02T12:50:23.880Z,83.79
2023-02-02T12:51:25.533Z,88.14
2023-02-02T12:52:23.936Z,87.17
2023-02-02T12:53:24.123Z,83.79
2023-02-02T12:54:32.756Z,86.69